Myrtle, West Virginia
Current Conditions -  °F | °C
As of 10:55 PM on Saturday 24 Jan 2015 (Local Time) from KPBX Reporting Station
Broken Clouds Broken Clouds  
Wind Chill: 34°   Ceiling: 4900
Heat Index: 34°   Visibility: 10mi
Dew Point: 31°   Wind: 3mph
Humidity: 88%   Direction: 220°SW
Pressure: 29.86"   Gusts: NA
Location:  37.7051°N, 82.1101°W
Report Text: KPBX 250355Z AUTO 22003KT 10SM BKN049 01/M01 A2986 RMK AO2 T00101008
Loading
Personal Weather Stations






























Interactive Weather Map New forecast layout! Learn more

10-Day Weather Forecast

Advertisements
Track Severe Weather on mobile